Cayuga, Mississippi
Current Conditions -  °F | °C
As of 12:15 PM on Saturday 25 Oct 2014 (Local Time) from KJVW Reporting Station
Clear Clear  
Wind Chill: 75°   Ceiling: Unl
Heat Index: 75°   Visibility: 10mi
Dew Point: 72°   Wind: 5mph
Humidity: 89%   Direction: 290°WNW
Pressure: 30.15"   Gusts: NA
Location:  32.1194°N, 90.6077°W
Report Text: KJVW 251715Z AUTO 29004KT 10SM CLR 24/22 A3015 RMK AO2
Loading
Personal Weather Stations






























Interactive Weather Map
Tropical Storm Tracking
New forecast layout! Learn more

10-Day Weather Forecast

Advertisements
Track Severe Weather on mobile